createdAt,value
2023-05-23T00:00:03.340Z,67.19
2023-05-23T00:02:57.764Z,66.51
2023-05-23T00:05:31.079Z,66.64
2023-05-23T00:07:51.296Z,66.91
2023-05-23T00:10:17.209Z,67.21
2023-05-23T00:12:38.816Z,67.46
2023-05-23T00:15:11.277Z,67.02
2023-05-23T00:17:33.172Z,67.10
2023-05-23T00:19:59.305Z,67.53
2023-05-23T00:22:34.297Z,67.01
2023-05-23T00:24:52.588Z,67.17
2023-05-23T00:27:18.361Z,67.79
2023-05-23T00:29:45.410Z,67.56
2023-05-23T00:32:13.736Z,67.04
2023-05-23T00:34:33.940Z,67.18
2023-05-23T00:37:01.401Z,67.02
2023-05-23T00:39:20.675Z,66.71
2023-05-23T00:41:38.981Z,66.53
2023-05-23T00:44:07.122Z,65.69
2023-05-23T00:46:34.232Z,65.33
2023-05-23T00:48:53.620Z,65.48
2023-05-23T00:51:20.012Z,65.14
2023-05-23T00:53:40.038Z,65.36
2023-05-23T00:56:07.197Z,65.56
2023-05-23T00:58:39.074Z,64.70
2023-05-23T01:01:10.922Z,65.69
2023-05-23T01:03:46.910Z,65.24
2023-05-23T01:06:18.787Z,64.41
2023-05-23T01:08:46.349Z,63.17
2023-05-23T01:11:23.479Z,63.32
2023-05-23T01:13:50.077Z,63.33
2023-05-23T01:16:32.513Z,64.09
2023-05-23T01:19:01.351Z,64.62
2023-05-23T01:21:28.733Z,64.72
2023-05-23T01:24:39.076Z,64.50
2023-05-23T01:27:13.056Z,65.24
2023-05-23T01:29:38.278Z,65.81
2023-05-23T01:32:15.665Z,65.38
2023-05-23T01:34:42.478Z,65.58
2023-05-23T01:37:03.465Z,66.06
2023-05-23T01:39:36.779Z,66.02
2023-05-23T01:42:08.075Z,66.09
2023-05-23T01:44:36.209Z,66.29
2023-05-23T01:46:55.730Z,66.39
2023-05-23T01:49:30.044Z,66.54
2023-05-23T01:52:05.786Z,67.00
2023-05-23T01:54:33.771Z,67.23
2023-05-23T01:57:09.522Z,67.51
2023-05-23T01:59:44.125Z,67.62
2023-05-23T02:02:04.422Z,67.58
2023-05-23T02:04:34.102Z,67.47
2023-05-23T02:07:09.077Z,67.55
2023-05-23T02:09:35.681Z,67.49
2023-05-23T02:11:55.408Z,67.58
2023-05-23T02:14:16.610Z,67.78
2023-05-23T02:16:37.653Z,67.94
2023-05-23T02:19:06.223Z,68.23
2023-05-23T02:21:35.057Z,68.17
2023-05-23T02:24:00.567Z,68.28
2023-05-23T02:26:28.727Z,68.82
2023-05-23T02:28:48.113Z,69.46
2023-05-23T02:31:14.807Z,69.23
2023-05-23T02:33:49.055Z,69.17
2023-05-23T02:36:23.844Z,69.20
2023-05-23T02:38:58.708Z,69.67
2023-05-23T02:41:31.381Z,70.13
2023-05-23T02:44:04.496Z,70.36
2023-05-23T02:46:25.845Z,70.61
2023-05-23T02:48:50.436Z,70.65
2023-05-23T02:51:17.090Z,70.80
2023-05-23T02:53:43.518Z,70.91
2023-05-23T02:56:18.812Z,70.94
2023-05-23T02:58:39.602Z,70.95
2023-05-23T03:01:13.231Z,70.99
2023-05-23T03:03:47.972Z,71.01
2023-05-23T03:06:15.699Z,71.16
2023-05-23T03:08:40.548Z,71.24
2023-05-23T03:10:59.030Z,71.21
2023-05-23T03:13:26.509Z,71.04
2023-05-23T03:15:54.322Z,70.92
2023-05-23T03:18:21.420Z,71.02
2023-05-23T03:20:57.017Z,71.13
2023-05-23T03:23:30.956Z,71.17
2023-05-23T03:25:51.230Z,71.18
2023-05-23T03:28:25.496Z,71.11
2023-05-23T03:30:47.361Z,71.12
2023-05-23T03:33:09.818Z,71.03
2023-05-23T03:35:35.337Z,70.91
2023-05-23T03:38:09.859Z,70.86
2023-05-23T03:40:46.214Z,70.88
2023-05-23T03:43:15.519Z,70.90
2023-05-23T03:45:42.380Z,70.90
2023-05-23T03:48:03.916Z,70.57
2023-05-23T03:50:32.010Z,70.71
2023-05-23T03:52:54.352Z,70.60
2023-05-23T03:55:28.577Z,70.66
2023-05-23T03:58:14.283Z,70.78
2023-05-23T04:00:49.509Z,70.86
2023-05-23T04:03:25.049Z,71.10
2023-05-23T04:05:58.887Z,71.10
2023-05-23T04:08:27.044Z,71.10
2023-05-23T04:11:01.238Z,71.03
2023-05-23T04:13:35.777Z,70.99
2023-05-23T04:16:06.765Z,71.01
2023-05-23T04:18:40.951Z,71.05
2023-05-23T04:21:10.357Z,70.84
2023-05-23T04:23:37.951Z,70.87
2023-05-23T04:25:58.647Z,70.85
2023-05-23T04:28:34.198Z,70.85
2023-05-23T04:31:09.748Z,70.69
2023-05-23T04:33:36.083Z,70.77
2023-05-23T04:36:01.239Z,70.79
2023-05-23T04:38:30.480Z,70.62
2023-05-23T04:41:04.366Z,70.45
2023-05-23T04:43:59.294Z,70.38
2023-05-23T04:46:37.857Z,70.38
2023-05-23T04:49:14.101Z,70.38
2023-05-23T04:51:41.364Z,70.29
2023-05-23T04:54:27.152Z,70.26
2023-05-23T04:56:58.528Z,70.33
2023-05-23T04:59:33.243Z,70.44
2023-05-23T05:01:55.882Z,70.35
2023-05-23T05:04:12.806Z,70.36
2023-05-23T05:06:39.490Z,70.47
2023-05-23T05:09:11.067Z,70.60
2023-05-23T05:11:45.860Z,70.69
2023-05-23T05:14:20.337Z,70.92
2023-05-23T05:16:55.710Z,70.88
2023-05-23T05:19:19.731Z,70.97
2023-05-23T05:21:54.667Z,71.05
2023-05-23T05:24:14.865Z,71.19
2023-05-23T05:26:42.052Z,71.23
2023-05-23T05:29:15.584Z,71.28
2023-05-23T05:31:37.005Z,71.44
2023-05-23T05:33:56.636Z,71.52
2023-05-23T05:36:24.504Z,71.55
2023-05-23T05:38:59.474Z,71.56
2023-05-23T05:41:32.791Z,71.64
2023-05-23T05:44:06.846Z,71.68
2023-05-23T05:46:27.814Z,71.60
2023-05-23T05:49:03.102Z,71.63
2023-05-23T05:51:33.275Z,71.80
2023-05-23T05:53:53.356Z,71.88
2023-05-23T05:56:29.189Z,71.74
2023-05-23T05:59:04.849Z,71.88
2023-05-23T06:01:40.494Z,71.91
2023-05-23T06:04:16.149Z,72.06
2023-05-23T06:06:45.457Z,72.14
2023-05-23T06:09:19.167Z,71.86
2023-05-23T06:11:41.169Z,71.24
2023-05-23T06:14:07.034Z,71.40
2023-05-23T06:16:37.225Z,71.56
2023-05-23T06:19:12.467Z,72.61
2023-05-23T06:21:33.421Z,72.70
2023-05-23T06:23:55.842Z,73.39
2023-05-23T06:26:29.295Z,73.50
2023-05-23T06:29:04.235Z,73.47
2023-05-23T06:31:38.057Z,73.65
2023-05-23T06:34:12.597Z,73.97
2023-05-23T06:36:48.080Z,73.83
2023-05-23T06:39:22.828Z,73.66
2023-05-23T06:41:57.607Z,73.45
2023-05-23T06:44:32.628Z,73.36
2023-05-23T06:47:06.983Z,73.36
2023-05-23T06:49:30.730Z,73.61
2023-05-23T06:52:06.821Z,73.63
2023-05-23T06:54:43.451Z,73.76
2023-05-23T06:57:11.764Z,73.84
2023-05-23T06:59:44.033Z,73.87
2023-05-23T07:02:19.103Z,74.02
2023-05-23T07:04:54.021Z,74.04
2023-05-23T07:07:29.709Z,73.98
2023-05-23T07:10:04.419Z,73.92
2023-05-23T07:12:40.311Z,74.01
2023-05-23T07:15:17.568Z,74.09
2023-05-23T07:17:56.829Z,74.16
2023-05-23T07:20:32.418Z,73.96
2023-05-23T07:23:07.329Z,73.97
2023-05-23T07:25:44.563Z,74.51
2023-05-23T07:28:28.748Z,74.42
2023-05-23T07:31:02.971Z,74.39
2023-05-23T07:33:26.203Z,74.57
2023-05-23T07:36:01.718Z,74.49
2023-05-23T07:38:37.208Z,74.73
2023-05-23T07:41:11.451Z,74.91
2023-05-23T07:43:32.728Z,74.76
2023-05-23T07:46:04.107Z,74.77
2023-05-23T07:48:30.956Z,74.77
2023-05-23T07:51:05.847Z,74.77
2023-05-23T07:53:41.437Z,74.95
2023-05-23T07:56:17.069Z,74.95
2023-05-23T07:58:51.288Z,74.81
2023-05-23T08:01:11.770Z,74.59
2023-05-23T08:04:06.843Z,74.47
2023-05-23T08:06:29.928Z,74.34
2023-05-23T08:09:03.268Z,74.31
2023-05-23T08:11:36.736Z,74.45
2023-05-23T08:14:01.723Z,74.41
2023-05-23T08:16:40.544Z,74.36
2023-05-23T08:19:16.871Z,74.41
2023-05-23T08:21:43.671Z,74.25
2023-05-23T08:24:18.246Z,74.29
2023-05-23T08:26:53.831Z,74.40
2023-05-23T08:29:14.774Z,74.44
2023-05-23T08:31:48.867Z,74.31
2023-05-23T08:34:23.384Z,74.21
2023-05-23T08:36:57.697Z,74.27
2023-05-23T08:39:26.695Z,74.40
2023-05-23T08:42:05.594Z,74.50
2023-05-23T08:44:33.238Z,74.45
2023-05-23T08:47:06.774Z,74.27
2023-05-23T08:49:43.791Z,74.37
2023-05-23T08:52:21.570Z,74.30
2023-05-23T08:54:49.010Z,74.37
2023-05-23T08:57:12.277Z,74.37
2023-05-23T08:59:40.202Z,74.80
2023-05-23T09:02:06.677Z,75.11
2023-05-23T09:04:42.057Z,74.93
2023-05-23T09:07:04.161Z,75.11
2023-05-23T09:09:26.691Z,75.30
2023-05-23T09:11:53.930Z,75.44
2023-05-23T09:14:27.979Z,75.51
2023-05-23T09:16:57.429Z,75.55
2023-05-23T09:19:27.189Z,75.50
2023-05-23T09:21:54.943Z,75.81
2023-05-23T09:24:26.015Z,75.91
2023-05-23T09:26:56.630Z,75.71
2023-05-23T09:29:32.430Z,75.81
2023-05-23T09:32:17.120Z,76.10
2023-05-23T09:35:01.529Z,77.16
2023-05-23T09:37:28.788Z,77.13
2023-05-23T09:40:04.562Z,77.29
2023-05-23T09:42:45.013Z,77.60
2023-05-23T09:45:20.512Z,78.84
2023-05-23T09:48:00.082Z,78.91
2023-05-23T09:50:24.035Z,78.91
2023-05-23T09:52:49.965Z,78.25
2023-05-23T09:55:09.371Z,78.24
2023-05-23T09:57:33.111Z,78.25
2023-05-23T10:00:07.964Z,78.09
2023-05-23T10:05:38.254Z,78.13
2023-05-23T10:08:11.980Z,78.67
2023-05-23T10:10:52.399Z,78.80
2023-05-23T10:13:23.977Z,79.02
2023-05-23T10:15:47.040Z,79.02
2023-05-23T10:18:20.386Z,79.04
2023-05-23T10:20:43.659Z,78.97
2023-05-23T10:23:06.840Z,79.17
2023-05-23T10:25:38.981Z,79.12
2023-05-23T10:28:04.328Z,79.15
2023-05-23T10:30:41.609Z,79.06
2023-05-23T10:33:05.550Z,79.05
2023-05-23T10:35:46.406Z,78.83
2023-05-23T10:38:23.956Z,78.74
2023-05-23T10:41:04.924Z,78.89
2023-05-23T10:43:34.977Z,78.97
2023-05-23T10:45:56.093Z,78.82
2023-05-23T10:48:26.526Z,78.78
2023-05-23T10:50:47.985Z,78.67
2023-05-23T10:53:23.268Z,78.79
2023-05-23T10:55:55.697Z,78.83
2023-05-23T10:58:24.210Z,78.98
2023-05-23T11:00:50.816Z,78.92
2023-05-23T11:03:17.804Z,78.79
2023-05-23T11:05:56.258Z,78.45
2023-05-23T11:08:18.973Z,78.50
2023-05-23T11:11:07.283Z,78.71
2023-05-23T11:14:03.916Z,78.86
2023-05-23T11:16:44.462Z,79.03
2023-05-23T11:19:34.171Z,78.95
2023-05-23T11:22:08.678Z,79.02
2023-05-23T11:24:59.975Z,78.99
2023-05-23T11:27:39.003Z,79.15
2023-05-23T11:30:08.403Z,79.31
2023-05-23T11:32:36.589Z,79.32
2023-05-23T11:35:00.033Z,79.18
2023-05-23T11:37:27.436Z,79.29
2023-05-23T11:39:50.429Z,79.50
2023-05-23T11:42:25.856Z,79.46
2023-05-23T11:44:59.981Z,79.60
2023-05-23T11:47:32.296Z,79.49
2023-05-23T11:50:05.758Z,79.44
2023-05-23T11:52:41.743Z,79.76
2023-05-23T11:55:02.847Z,79.72
2023-05-23T11:57:41.309Z,79.94
2023-05-23T12:00:12.623Z,80.02
2023-05-23T12:02:51.389Z,80.16
2023-05-23T12:05:19.450Z,80.24
2023-05-23T12:07:46.524Z,80.33
2023-05-23T12:10:14.106Z,80.38
2023-05-23T12:12:44.063Z,80.42
2023-05-23T12:15:18.662Z,80.42
2023-05-23T12:17:40.680Z,80.51
2023-05-23T12:20:11.999Z,80.43
2023-05-23T12:22:35.809Z,80.58
2023-05-23T12:25:11.957Z,80.61
2023-05-23T12:27:45.151Z,80.54
2023-05-23T12:30:20.674Z,80.75
2023-05-23T12:32:45.950Z,80.87
2023-05-23T12:35:11.982Z,80.85
2023-05-23T12:37:34.509Z,80.99
2023-05-23T12:40:01.579Z,80.97
2023-05-23T12:42:47.060Z,80.97
2023-05-23T12:45:23.931Z,80.93
2023-05-23T12:47:53.641Z,80.97
2023-05-23T12:50:21.341Z,81.01
2023-05-23T12:52:49.770Z,80.97
2023-05-23T12:55:25.020Z,81.10
2023-05-23T12:57:59.392Z,81.24
2023-05-23T13:00:33.677Z,81.18
2023-05-23T13:02:59.883Z,81.20
2023-05-23T13:05:29.708Z,81.34
2023-05-23T13:07:56.683Z,81.39
2023-05-23T13:10:27.749Z,81.39
2023-05-23T13:13:06.058Z,81.45
2023-05-23T13:15:34.870Z,81.55
2023-05-23T13:17:55.902Z,81.71
2023-05-23T13:20:23.383Z,81.84
2023-05-23T13:22:51.111Z,81.94
2023-05-23T13:25:24.940Z,82.00
2023-05-23T13:27:58.464Z,81.97
2023-05-23T13:30:32.650Z,82.08
2023-05-23T13:32:58.702Z,82.09
2023-05-23T13:35:33.140Z,81.79
2023-05-23T13:38:01.780Z,82.11
2023-05-23T13:40:36.015Z,82.23
2023-05-23T13:43:12.611Z,82.24
2023-05-23T13:45:48.467Z,82.48
2023-05-23T13:48:16.191Z,82.38
2023-05-23T13:50:46.067Z,82.57
2023-05-23T13:53:16.459Z,82.78
2023-05-23T13:55:51.870Z,82.77
2023-05-23T13:58:15.261Z,82.63
2023-05-23T14:00:50.487Z,82.75
2023-05-23T14:03:26.410Z,82.87
2023-05-23T14:06:00.342Z,82.79
2023-05-23T14:08:33.861Z,82.86
2023-05-23T14:11:01.503Z,82.78
2023-05-23T14:13:35.923Z,82.90
2023-05-23T14:16:03.123Z,83.18
2023-05-23T14:18:32.807Z,83.15
2023-05-23T14:21:04.253Z,83.04
2023-05-23T14:23:26.026Z,83.11
2023-05-23T14:25:48.005Z,83.23
2023-05-23T14:28:16.816Z,83.35
2023-05-23T14:30:33.967Z,83.37
2023-05-23T14:32:53.159Z,83.36
2023-05-23T14:35:19.079Z,83.26
2023-05-23T14:37:54.066Z,83.23
2023-05-23T14:40:29.758Z,83.28
2023-05-23T14:42:58.686Z,83.38
2023-05-23T14:45:32.919Z,83.34
2023-05-23T14:48:09.159Z,83.40
2023-05-23T14:50:44.167Z,83.79
2023-05-23T14:53:17.942Z,83.95
2023-05-23T14:55:53.072Z,83.91
2023-05-23T14:58:14.272Z,83.65
2023-05-23T15:00:34.342Z,83.27
2023-05-23T15:03:09.392Z,83.08
2023-05-23T15:05:31.849Z,83.46
2023-05-23T15:08:07.503Z,82.65
2023-05-23T15:10:36.498Z,82.27
2023-05-23T15:13:05.443Z,82.02
2023-05-23T15:15:41.981Z,80.94
2023-05-23T15:18:19.010Z,80.66
2023-05-23T15:21:02.129Z,80.17
2023-05-23T15:23:34.092Z,79.46
2023-05-23T15:26:00.821Z,79.60
2023-05-23T15:28:34.480Z,79.80
2023-05-23T15:30:55.350Z,79.88
2023-05-23T15:33:23.045Z,79.27
2023-05-23T15:35:44.614Z,79.02
2023-05-23T15:38:05.072Z,79.00
2023-05-23T15:40:31.308Z,78.31
2023-05-23T15:42:54.271Z,78.01
2023-05-23T15:45:23.365Z,77.38
2023-05-23T15:47:45.332Z,76.71
2023-05-23T15:50:14.434Z,76.53
2023-05-23T15:52:38.773Z,76.01
2023-05-23T15:55:14.668Z,76.13
2023-05-23T15:57:41.955Z,75.55
2023-05-23T16:00:04.998Z,75.09
2023-05-23T16:02:28.134Z,75.30
2023-05-23T16:04:49.918Z,75.47
2023-05-23T16:07:17.646Z,75.01
2023-05-23T16:09:51.872Z,75.02
2023-05-23T16:12:17.178Z,74.71
2023-05-23T16:14:48.956Z,73.73
2023-05-23T16:17:16.238Z,73.43
2023-05-23T16:19:50.605Z,72.75
2023-05-23T16:22:18.537Z,73.55
2023-05-23T16:24:44.883Z,74.01
2023-05-23T16:27:20.657Z,74.27
2023-05-23T16:29:41.349Z,74.09
2023-05-23T16:32:09.636Z,73.56
2023-05-23T16:34:33.072Z,73.52
2023-05-23T16:37:08.786Z,73.30
2023-05-23T16:39:32.544Z,72.77
2023-05-23T16:42:00.340Z,71.78
2023-05-23T16:44:33.188Z,71.45
2023-05-23T16:47:07.581Z,71.76
2023-05-23T16:49:28.069Z,71.82
2023-05-23T16:51:53.623Z,72.02
2023-05-23T16:54:21.167Z,70.98
2023-05-23T16:56:41.227Z,70.12
2023-05-23T16:59:02.123Z,68.98
2023-05-23T17:01:35.168Z,69.85
2023-05-23T17:04:02.737Z,69.71
2023-05-23T17:06:24.178Z,68.85
2023-05-23T17:08:49.979Z,68.42
2023-05-23T17:11:24.888Z,68.91
2023-05-23T17:13:55.947Z,68.70
2023-05-23T17:16:34.417Z,67.54
2023-05-23T17:18:59.315Z,67.51
2023-05-23T17:21:27.758Z,68.25
2023-05-23T17:24:02.553Z,68.16
2023-05-23T17:26:34.448Z,69.52
2023-05-23T17:29:02.797Z,69.68
2023-05-23T17:31:38.052Z,69.89
2023-05-23T17:34:01.560Z,70.01
2023-05-23T17:36:37.220Z,69.93
2023-05-23T17:38:58.624Z,69.76
2023-05-23T17:41:33.331Z,70.26
2023-05-23T17:44:07.736Z,70.85
2023-05-23T17:46:30.722Z,71.69
2023-05-23T17:48:58.315Z,71.99
2023-05-23T17:51:32.069Z,72.25
2023-05-23T17:53:54.675Z,72.31
2023-05-23T17:56:20.952Z,71.79
2023-05-23T17:58:41.682Z,71.20
2023-05-23T18:01:17.314Z,71.05
2023-05-23T18:03:50.956Z,71.47
2023-05-23T18:06:14.647Z,71.40
2023-05-23T18:08:36.468Z,70.46
2023-05-23T18:11:01.861Z,70.74
2023-05-23T18:13:28.176Z,70.46
2023-05-23T18:15:53.717Z,70.16
2023-05-23T18:18:21.665Z,69.78
2023-05-23T18:20:55.626Z,69.25
2023-05-23T18:23:18.816Z,68.77
2023-05-23T18:25:53.896Z,68.51
2023-05-23T18:28:22.677Z,68.84
2023-05-23T18:30:45.447Z,68.67
2023-05-23T18:33:17.771Z,68.66
2023-05-23T18:35:52.116Z,68.10
2023-05-23T18:38:15.418Z,67.69
2023-05-23T18:40:50.901Z,68.50
2023-05-23T18:43:10.450Z,67.97
2023-05-23T18:45:30.179Z,68.32
2023-05-23T18:47:56.102Z,67.85
2023-05-23T18:50:21.471Z,67.91
2023-05-23T18:52:43.534Z,68.35
2023-05-23T18:55:09.349Z,68.37
2023-05-23T18:57:36.408Z,68.60
2023-05-23T19:00:10.249Z,69.14
2023-05-23T19:02:45.431Z,69.31
2023-05-23T19:05:15.839Z,69.40
2023-05-23T19:07:42.609Z,69.62
2023-05-23T19:10:18.302Z,69.45
2023-05-23T19:12:52.534Z,69.91
2023-05-23T19:15:14.076Z,69.70
2023-05-23T19:17:42.406Z,69.91
2023-05-23T19:20:03.055Z,69.62
2023-05-23T19:22:43.072Z,69.59
2023-05-23T19:25:19.517Z,69.95
2023-05-23T19:27:41.750Z,69.26
2023-05-23T19:30:06.268Z,69.55
2023-05-23T19:32:27.329Z,70.17
2023-05-23T19:35:01.520Z,70.76
2023-05-23T19:37:35.609Z,70.50
2023-05-23T19:40:07.349Z,70.68
2023-05-23T19:42:43.033Z,70.53
2023-05-23T19:45:01.914Z,70.64
2023-05-23T19:47:36.254Z,70.47
2023-05-23T19:50:03.316Z,70.81
2023-05-23T19:52:38.634Z,70.29
2023-05-23T19:55:03.729Z,69.55
2023-05-23T19:57:37.648Z,69.73
2023-05-23T20:00:12.660Z,69.41
2023-05-23T20:02:48.771Z,69.51
2023-05-23T20:05:23.891Z,69.25
2023-05-23T20:07:43.885Z,69.60
2023-05-23T20:10:18.507Z,69.29
2023-05-23T20:12:50.923Z,69.15
2023-05-23T20:15:38.564Z,68.54
2023-05-23T20:18:12.685Z,67.93
2023-05-23T20:20:36.778Z,67.24
2023-05-23T20:23:05.676Z,67.36
2023-05-23T20:25:32.720Z,67.13
2023-05-23T20:28:07.704Z,67.27
2023-05-23T20:30:28.050Z,67.65
2023-05-23T20:32:54.878Z,67.99
2023-05-23T20:35:22.124Z,68.34
2023-05-23T20:37:48.884Z,68.31
2023-05-23T20:40:26.741Z,67.76
2023-05-23T20:42:48.140Z,67.61
2023-05-23T20:45:21.601Z,67.90
2023-05-23T20:47:44.672Z,68.09
2023-05-23T20:50:04.802Z,68.53
2023-05-23T20:52:42.686Z,68.72
2023-05-23T20:55:18.890Z,68.99
2023-05-23T20:57:43.969Z,67.02
2023-05-23T21:00:22.793Z,66.94
2023-05-23T21:02:42.636Z,66.50
2023-05-23T21:05:10.541Z,66.07
2023-05-23T21:07:33.072Z,65.86
2023-05-23T21:10:03.869Z,65.60
2023-05-23T21:12:29.260Z,65.62
2023-05-23T21:15:02.960Z,65.85
2023-05-23T21:17:24.425Z,65.20
2023-05-23T21:19:52.288Z,64.61
2023-05-23T21:22:24.650Z,64.44
2023-05-23T21:24:42.978Z,64.17
2023-05-23T21:27:04.694Z,64.19
2023-05-23T21:29:32.695Z,64.80
2023-05-23T21:31:54.948Z,64.43
2023-05-23T21:34:23.791Z,63.56
2023-05-23T21:36:52.333Z,64.40
2023-05-23T21:39:20.178Z,64.05
2023-05-23T21:41:55.966Z,64.27
2023-05-23T21:44:22.317Z,63.80
2023-05-23T21:46:49.928Z,63.43
2023-05-23T21:49:13.559Z,62.55
2023-05-23T21:51:41.122Z,62.58
2023-05-23T21:54:15.543Z,61.67
2023-05-23T21:56:46.254Z,61.55
2023-05-23T21:59:17.405Z,61.31
2023-05-23T22:01:44.266Z,61.50
2023-05-23T22:04:21.038Z,62.02
2023-05-23T22:06:53.082Z,62.21
2023-05-23T22:09:27.624Z,61.66
2023-05-23T22:11:49.208Z,61.95
2023-05-23T22:14:08.551Z,61.50
2023-05-23T22:16:30.145Z,60.99
2023-05-23T22:19:01.686Z,60.93
2023-05-23T22:21:24.031Z,61.87
2023-05-23T22:23:58.914Z,62.20
2023-05-23T22:26:23.083Z,62.41
2023-05-23T22:28:56.835Z,62.51
2023-05-23T22:31:22.676Z,63.52
2023-05-23T22:33:50.196Z,64.24
2023-05-23T22:36:23.040Z,64.88
2023-05-23T22:38:44.392Z,65.27
2023-05-23T22:41:11.466Z,65.05
2023-05-23T22:43:34.585Z,64.57
2023-05-23T22:46:04.676Z,64.18
2023-05-23T22:48:29.143Z,63.93
2023-05-23T22:50:49.773Z,63.76
2023-05-23T22:53:23.917Z,63.44
2023-05-23T22:55:50.010Z,64.27
2023-05-23T22:58:17.393Z,64.42
2023-05-23T23:00:36.960Z,64.22
2023-05-23T23:02:56.854Z,64.14
2023-05-23T23:05:27.303Z,64.25
2023-05-23T23:07:53.363Z,63.91
2023-05-23T23:10:26.584Z,64.25
2023-05-23T23:12:45.809Z,64.43
2023-05-23T23:15:20.224Z,64.82
2023-05-23T23:17:50.278Z,65.49
2023-05-23T23:20:18.559Z,65.96
2023-05-23T23:22:37.846Z,66.17
2023-05-23T23:25:14.159Z,66.44
2023-05-23T23:27:43.209Z,66.76
2023-05-23T23:30:12.832Z,66.71
2023-05-23T23:32:46.276Z,66.79
2023-05-23T23:35:14.196Z,66.88
2023-05-23T23:37:48.230Z,67.46
2023-05-23T23:40:13.524Z,67.35
2023-05-23T23:42:46.352Z,66.99
2023-05-23T23:45:21.250Z,66.81
2023-05-23T23:47:49.354Z,66.90
2023-05-23T23:50:17.888Z,66.84
2023-05-23T23:52:38.464Z,66.54
2023-05-23T23:54:57.897Z,66.71
2023-05-23T23:57:22.155Z,66.85
2023-05-23T23:59:58.303Z,66.99
